sensor_id;sensor_type;location;lat;lon;timestamp;P1;durP1;ratioP1;P2;durP2;ratioP2
38220;SDS011;24023;51.280;7.148;2023-01-30T00:00:10;19.9;;;15.8;;
38220;SDS011;24023;51.280;7.148;2023-01-30T00:05:06;19.9;;;15.8;;
38220;SDS011;24023;51.280;7.148;2023-01-30T00:10:08;20.4;;;15.4;;
38220;SDS011;24023;51.280;7.148;2023-01-30T00:15:13;20.4;;;15.4;;
38220;SDS011;24023;51.280;7.148;2023-01-30T00:20:08;19.6;;;14.7;;
38220;SDS011;24023;51.280;7.148;2023-01-30T00:25:06;19.6;;;14.7;;
38220;SDS011;24023;51.280;7.148;2023-01-30T00:30:09;19.6;;;14.7;;
38220;SDS011;24023;51.280;7.148;2023-01-30T00:35:06;18.2;;;15.3;;
38220;SDS011;24023;51.280;7.148;2023-01-30T00:40:09;18.2;;;15.3;;
38220;SDS011;24023;51.280;7.148;2023-01-30T00:50:08;18.3;;;15.3;;
38220;SDS011;24023;51.280;7.148;2023-01-30T00:55:06;18.3;;;15.3;;
38220;SDS011;24023;51.280;7.148;2023-01-30T01:00:11;16.9;;;14.3;;
38220;SDS011;24023;51.280;7.148;2023-01-30T01:05:06;16.9;;;14.3;;
38220;SDS011;24023;51.280;7.148;2023-01-30T01:10:08;17.7;;;14.6;;
38220;SDS011;24023;51.280;7.148;2023-01-30T01:15:07;17.7;;;14.6;;
38220;SDS011;24023;51.280;7.148;2023-01-30T01:20:08;17.7;;;14.6;;
38220;SDS011;24023;51.280;7.148;2023-01-30T01:25:06;18.4;;;14.9;;
38220;SDS011;24023;51.280;7.148;2023-01-30T01:30:09;15.5;;;13.8;;
38220;SDS011;24023;51.280;7.148;2023-01-30T01:35:07;15.5;;;13.8;;
38220;SDS011;24023;51.280;7.148;2023-01-30T01:41:12;15.5;;;13.8;;
38220;SDS011;24023;51.280;7.148;2023-01-30T01:45:15;16.6;;;13.7;;
38220;SDS011;24023;51.280;7.148;2023-01-30T01:50:09;16.6;;;13.7;;
38220;SDS011;24023;51.280;7.148;2023-01-30T01:55:06;17.7;;;14.6;;
38220;SDS011;24023;51.280;7.148;2023-01-30T02:00:12;17.7;;;14.6;;
38220;SDS011;24023;51.280;7.148;2023-01-30T02:05:06;17.7;;;14.6;;
38220;SDS011;24023;51.280;7.148;2023-01-30T02:10:09;16.2;;;13.2;;
38220;SDS011;24023;51.280;7.148;2023-01-30T02:15:07;16.2;;;13.2;;
38220;SDS011;24023;51.280;7.148;2023-01-30T02:20:09;17.2;;;14.6;;
38220;SDS011;24023;51.280;7.148;2023-01-30T02:25:24;17.2;;;14.6;;
38220;SDS011;24023;51.280;7.148;2023-01-30T02:30:13;17.2;;;14.6;;
38220;SDS011;24023;51.280;7.148;2023-01-30T02:35:08;15.7;;;13.4;;
38220;SDS011;24023;51.280;7.148;2023-01-30T02:40:10;15.7;;;13.4;;
38220;SDS011;24023;51.280;7.148;2023-01-30T02:45:09;14.8;;;13.2;;
38220;SDS011;24023;51.280;7.148;2023-01-30T02:50:09;17.8;;;15.8;;
38220;SDS011;24023;51.280;7.148;2023-01-30T02:55:07;17.8;;;15.8;;
38220;SDS011;24023;51.280;7.148;2023-01-30T03:00:11;16.3;;;13.7;;
38220;SDS011;24023;51.280;7.148;2023-01-30T03:05:11;16.3;;;13.7;;
38220;SDS011;24023;51.280;7.148;2023-01-30T03:10:08;16.3;;;13.7;;
38220;SDS011;24023;51.280;7.148;2023-01-30T03:15:09;16.0;;;13.4;;
38220;SDS011;24023;51.280;7.148;2023-01-30T03:20:08;16.0;;;13.4;;
38220;SDS011;24023;51.280;7.148;2023-01-30T03:25:07;16.3;;;13.5;;
38220;SDS011;24023;51.280;7.148;2023-01-30T03:30:09;14.4;;;12.8;;
38220;SDS011;24023;51.280;7.148;2023-01-30T03:35:07;14.4;;;12.8;;
38220;SDS011;24023;51.280;7.148;2023-01-30T03:40:07;14.4;;;12.8;;
38220;SDS011;24023;51.280;7.148;2023-01-30T03:45:09;15.2;;;12.7;;
38220;SDS011;24023;51.280;7.148;2023-01-30T03:50:08;15.2;;;12.7;;
38220;SDS011;24023;51.280;7.148;2023-01-30T03:55:07;15.2;;;12.7;;
38220;SDS011;24023;51.280;7.148;2023-01-30T04:00:11;15.2;;;12.7;;
38220;SDS011;24023;51.280;7.148;2023-01-30T04:05:07;15.2;;;12.7;;
38220;SDS011;24023;51.280;7.148;2023-01-30T04:10:07;14.5;;;12.9;;
38220;SDS011;24023;51.280;7.148;2023-01-30T04:15:07;14.5;;;12.9;;
38220;SDS011;24023;51.280;7.148;2023-01-30T04:20:08;13.5;;;11.7;;
38220;SDS011;24023;51.280;7.148;2023-01-30T04:25:06;13.5;;;11.7;;
38220;SDS011;24023;51.280;7.148;2023-01-30T04:30:09;13.5;;;11.7;;
38220;SDS011;24023;51.280;7.148;2023-01-30T04:35:06;13.2;;;11.0;;
38220;SDS011;24023;51.280;7.148;2023-01-30T04:40:08;13.2;;;11.0;;
38220;SDS011;24023;51.280;7.148;2023-01-30T04:45:09;13.5;;;11.5;;
38220;SDS011;24023;51.280;7.148;2023-01-30T04:50:08;11.4;;;10.2;;
38220;SDS011;24023;51.280;7.148;2023-01-30T04:55:06;11.4;;;10.2;;
38220;SDS011;24023;51.280;7.148;2023-01-30T05:00:12;9.5;;;8.5;;
38220;SDS011;24023;51.280;7.148;2023-01-30T05:05:07;9.5;;;8.5;;
38220;SDS011;24023;51.280;7.148;2023-01-30T05:10:08;9.5;;;8.5;;
38220;SDS011;24023;51.280;7.148;2023-01-30T05:15:09;9.7;;;8.0;;
38220;SDS011;24023;51.280;7.148;2023-01-30T05:20:09;9.7;;;8.0;;
38220;SDS011;24023;51.280;7.148;2023-01-30T05:25:07;8.8;;;7.8;;
38220;SDS011;24023;51.280;7.148;2023-01-30T05:30:09;8.8;;;7.8;;
38220;SDS011;24023;51.280;7.148;2023-01-30T05:35:07;8.8;;;7.8;;
38220;SDS011;24023;51.280;7.148;2023-01-30T05:40:08;7.5;;;6.8;;
38220;SDS011;24023;51.280;7.148;2023-01-30T05:45:10;7.5;;;6.8;;
38220;SDS011;24023;51.280;7.148;2023-01-30T05:50:08;7.9;;;7.1;;
38220;SDS011;24023;51.280;7.148;2023-01-30T05:55:06;7.9;;;7.1;;
38220;SDS011;24023;51.280;7.148;2023-01-30T06:00:11;8.0;;;7.2;;
38220;SDS011;24023;51.280;7.148;2023-01-30T06:05:07;8.0;;;7.2;;
38220;SDS011;24023;51.280;7.148;2023-01-30T06:10:08;8.0;;;7.2;;
38220;SDS011;24023;51.280;7.148;2023-01-30T06:15:08;7.6;;;6.9;;
38220;SDS011;24023;51.280;7.148;2023-01-30T06:20:08;7.6;;;6.9;;
38220;SDS011;24023;51.280;7.148;2023-01-30T06:25:06;7.4;;;6.6;;
38220;SDS011;24023;51.280;7.148;2023-01-30T06:30:10;7.4;;;6.6;;
38220;SDS011;24023;51.280;7.148;2023-01-30T06:35:07;7.4;;;6.6;;
38220;SDS011;24023;51.280;7.148;2023-01-30T06:40:08;7.4;;;6.7;;
38220;SDS011;24023;51.280;7.148;2023-01-30T06:45:09;7.4;;;6.7;;
38220;SDS011;24023;51.280;7.148;2023-01-30T06:50:08;6.2;;;5.7;;
38220;SDS011;24023;51.280;7.148;2023-01-30T06:55:07;6.2;;;5.7;;
38220;SDS011;24023;51.280;7.148;2023-01-30T07:00:12;6.2;;;5.7;;
38220;SDS011;24023;51.280;7.148;2023-01-30T07:05:07;5.7;;;5.1;;
38220;SDS011;24023;51.280;7.148;2023-01-30T07:10:09;5.7;;;5.1;;
38220;SDS011;24023;51.280;7.148;2023-01-30T07:15:08;5.6;;;4.7;;
38220;SDS011;24023;51.280;7.148;2023-01-30T07:20:10;5.6;;;4.7;;
38220;SDS011;24023;51.280;7.148;2023-01-30T07:25:06;5.6;;;4.7;;
38220;SDS011;24023;51.280;7.148;2023-01-30T07:30:10;6.2;;;5.6;;
38220;SDS011;24023;51.280;7.148;2023-01-30T07:35:06;6.2;;;5.6;;
38220;SDS011;24023;51.280;7.148;2023-01-30T07:40:10;7.0;;;5.6;;
38220;SDS011;24023;51.280;7.148;2023-01-30T07:45:10;7.0;;;5.6;;
38220;SDS011;24023;51.280;7.148;2023-01-30T07:50:07;6.6;;;5.6;;
38220;SDS011;24023;51.280;7.148;2023-01-30T07:55:06;6.6;;;5.6;;
38220;SDS011;24023;51.280;7.148;2023-01-30T08:00:11;6.6;;;5.6;;
38220;SDS011;24023;51.280;7.148;2023-01-30T08:05:07;8.1;;;6.1;;
38220;SDS011;24023;51.280;7.148;2023-01-30T08:10:08;8.1;;;6.1;;
38220;SDS011;24023;51.280;7.148;2023-01-30T08:15:08;9.3;;;5.4;;
38220;SDS011;24023;51.280;7.148;2023-01-30T08:20:09;9.3;;;5.4;;
38220;SDS011;24023;51.280;7.148;2023-01-30T08:25:06;9.3;;;5.4;;
38220;SDS011;24023;51.280;7.148;2023-01-30T08:30:10;9.5;;;5.3;;
38220;SDS011;24023;51.280;7.148;2023-01-30T08:35:07;9.5;;;5.3;;
38220;SDS011;24023;51.280;7.148;2023-01-30T08:40:08;9.5;;;5.3;;
38220;SDS011;24023;51.280;7.148;2023-01-30T08:45:09;8.6;;;5.8;;
38220;SDS011;24023;51.280;7.148;2023-01-30T08:50:08;8.6;;;5.8;;
38220;SDS011;24023;51.280;7.148;2023-01-30T08:55:06;7.2;;;5.7;;
38220;SDS011;24023;51.280;7.148;2023-01-30T09:00:11;7.2;;;5.7;;
38220;SDS011;24023;51.280;7.148;2023-01-30T09:05:06;7.2;;;5.7;;
38220;SDS011;24023;51.280;7.148;2023-01-30T09:10:08;7.4;;;5.0;;
38220;SDS011;24023;51.280;7.148;2023-01-30T09:15:08;7.2;;;4.6;;
38220;SDS011;24023;51.280;7.148;2023-01-30T09:20:09;7.2;;;4.6;;
38220;SDS011;24023;51.280;7.148;2023-01-30T09:25:06;6.4;;;3.6;;
38220;SDS011;24023;51.280;7.148;2023-01-30T09:30:09;8.5;;;3.5;;
38220;SDS011;24023;51.280;7.148;2023-01-30T09:35:07;8.5;;;3.5;;
38220;SDS011;24023;51.280;7.148;2023-01-30T09:40:09;8.5;;;3.5;;
38220;SDS011;24023;51.280;7.148;2023-01-30T09:45:13;7.8;;;3.0;;
38220;SDS011;24023;51.280;7.148;2023-01-30T09:50:13;10.1;;;2.4;;
38220;SDS011;24023;51.280;7.148;2023-01-30T09:55:12;10.1;;;2.4;;
38220;SDS011;24023;51.280;7.148;2023-01-30T10:00:12;10.1;;;2.4;;
38220;SDS011;24023;51.280;7.148;2023-01-30T10:05:06;8.7;;;2.6;;
38220;SDS011;24023;51.280;7.148;2023-01-30T10:10:10;8.7;;;2.6;;
38220;SDS011;24023;51.280;7.148;2023-01-30T10:15:13;7.7;;;2.4;;
38220;SDS011;24023;51.280;7.148;2023-01-30T10:20:18;10.0;;;2.2;;
38220;SDS011;24023;51.280;7.148;2023-01-30T10:25:12;10.0;;;2.2;;
38220;SDS011;24023;51.280;7.148;2023-01-30T10:30:13;10.0;;;2.2;;
38220;SDS011;24023;51.280;7.148;2023-01-30T10:35:11;9.4;;;2.7;;
38220;SDS011;24023;51.280;7.148;2023-01-30T10:40:11;9.4;;;2.7;;
38220;SDS011;24023;51.280;7.148;2023-01-30T10:45:09;9.3;;;2.1;;
38220;SDS011;24023;51.280;7.148;2023-01-30T10:50:11;11.3;;;2.5;;
38220;SDS011;24023;51.280;7.148;2023-01-30T10:55:09;11.3;;;2.5;;
38220;SDS011;24023;51.280;7.148;2023-01-30T11:00:14;8.4;;;1.8;;
38220;SDS011;24023;51.280;7.148;2023-01-30T11:05:10;8.4;;;1.8;;
38220;SDS011;24023;51.280;7.148;2023-01-30T11:10:11;8.4;;;1.8;;
38220;SDS011;24023;51.280;7.148;2023-01-30T11:15:08;8.2;;;1.9;;
38220;SDS011;24023;51.280;7.148;2023-01-30T11:20:10;11.7;;;2.1;;
38220;SDS011;24023;51.280;7.148;2023-01-30T11:25:12;11.7;;;2.1;;
38220;SDS011;24023;51.280;7.148;2023-01-30T11:30:12;7.8;;;1.8;;
38220;SDS011;24023;51.280;7.148;2023-01-30T11:35:23;7.8;;;1.8;;
38220;SDS011;24023;51.280;7.148;2023-01-30T11:40:13;7.8;;;1.8;;
38220;SDS011;24023;51.280;7.148;2023-01-30T11:45:11;8.6;;;1.8;;
38220;SDS011;24023;51.280;7.148;2023-01-30T11:50:08;8.6;;;1.8;;
38220;SDS011;24023;51.280;7.148;2023-01-30T11:55:09;8.9;;;2.0;;
38220;SDS011;24023;51.280;7.148;2023-01-30T12:00:13;6.6;;;2.0;;
38220;SDS011;24023;51.280;7.148;2023-01-30T12:05:09;6.6;;;2.0;;
38220;SDS011;24023;51.280;7.148;2023-01-30T12:10:18;10.1;;;2.3;;
38220;SDS011;24023;51.280;7.148;2023-01-30T12:15:12;10.1;;;2.3;;
38220;SDS011;24023;51.280;7.148;2023-01-30T12:20:11;8.3;;;1.8;;
38220;SDS011;24023;51.280;7.148;2023-01-30T12:25:08;8.3;;;1.8;;
38220;SDS011;24023;51.280;7.148;2023-01-30T12:30:14;8.3;;;1.8;;
38220;SDS011;24023;51.280;7.148;2023-01-30T12:35:12;9.3;;;2.0;;
38220;SDS011;24023;51.280;7.148;2023-01-30T12:40:11;9.3;;;2.0;;
38220;SDS011;24023;51.280;7.148;2023-01-30T12:45:15;8.9;;;2.3;;
38220;SDS011;24023;51.280;7.148;2023-01-30T12:50:13;10.5;;;2.0;;
38220;SDS011;24023;51.280;7.148;2023-01-30T12:55:08;10.5;;;2.0;;
38220;SDS011;24023;51.280;7.148;2023-01-30T13:00:22;8.1;;;1.7;;
38220;SDS011;24023;51.280;7.148;2023-01-30T13:05:18;8.1;;;1.7;;
38220;SDS011;24023;51.280;7.148;2023-01-30T13:10:11;8.1;;;1.7;;
38220;SDS011;24023;51.280;7.148;2023-01-30T13:15:12;8.7;;;2.1;;
38220;SDS011;24023;51.280;7.148;2023-01-30T13:20:13;8.7;;;2.1;;
38220;SDS011;24023;51.280;7.148;2023-01-30T13:25:11;8.5;;;2.1;;
38220;SDS011;24023;51.280;7.148;2023-01-30T13:30:11;10.7;;;2.0;;
38220;SDS011;24023;51.280;7.148;2023-01-30T13:35:08;10.7;;;2.0;;
38220;SDS011;24023;51.280;7.148;2023-01-30T13:40:12;10.7;;;2.0;;
38220;SDS011;24023;51.280;7.148;2023-01-30T13:45:12;9.4;;;2.0;;
38220;SDS011;24023;51.280;7.148;2023-01-30T13:50:14;7.8;;;2.0;;
38220;SDS011;24023;51.280;7.148;2023-01-30T13:55:09;7.8;;;2.0;;
38220;SDS011;24023;51.280;7.148;2023-01-30T14:00:17;9.4;;;2.1;;
38220;SDS011;24023;51.280;7.148;2023-01-30T14:05:06;9.4;;;2.1;;
38220;SDS011;24023;51.280;7.148;2023-01-30T14:10:11;9.4;;;2.1;;
38220;SDS011;24023;51.280;7.148;2023-01-30T14:15:17;10.5;;;2.3;;
38220;SDS011;24023;51.280;7.148;2023-01-30T14:20:12;10.5;;;2.3;;
38220;SDS011;24023;51.280;7.148;2023-01-30T14:26:07;11.3;;;2.2;;
38220;SDS011;24023;51.280;7.148;2023-01-30T14:30:32;9.3;;;2.2;;
38220;SDS011;24023;51.280;7.148;2023-01-30T14:35:18;9.3;;;2.2;;
38220;SDS011;24023;51.280;7.148;2023-01-30T14:40:25;11.5;;;2.7;;
38220;SDS011;24023;51.280;7.148;2023-01-30T14:45:13;11.5;;;2.7;;
38220;SDS011;24023;51.280;7.148;2023-01-30T14:50:15;11.5;;;2.7;;
38220;SDS011;24023;51.280;7.148;2023-01-30T14:55:06;12.8;;;2.8;;
38220;SDS011;24023;51.280;7.148;2023-01-30T15:00:14;11.0;;;2.4;;
38220;SDS011;24023;51.280;7.148;2023-01-30T15:05:07;11.0;;;2.4;;
38220;SDS011;24023;51.280;7.148;2023-01-30T15:10:13;11.0;;;2.4;;
38220;SDS011;24023;51.280;7.148;2023-01-30T15:15:12;12.5;;;2.6;;
38220;SDS011;24023;51.280;7.148;2023-01-30T15:20:11;10.3;;;2.3;;
38220;SDS011;24023;51.280;7.148;2023-01-30T15:25:11;10.3;;;2.3;;
38220;SDS011;24023;51.280;7.148;2023-01-30T15:30:12;10.3;;;2.3;;
38220;SDS011;24023;51.280;7.148;2023-01-30T15:35:11;10.7;;;2.2;;
38220;SDS011;24023;51.280;7.148;2023-01-30T15:40:09;12.3;;;2.6;;
38220;SDS011;24023;51.280;7.148;2023-01-30T15:45:11;12.3;;;2.6;;
38220;SDS011;24023;51.280;7.148;2023-01-30T15:50:08;12.3;;;2.6;;
38220;SDS011;24023;51.280;7.148;2023-01-30T15:55:06;12.3;;;2.6;;
38220;SDS011;24023;51.280;7.148;2023-01-30T16:00:17;13.2;;;3.5;;
38220;SDS011;24023;51.280;7.148;2023-01-30T16:05:14;13.2;;;3.5;;
38220;SDS011;24023;51.280;7.148;2023-01-30T16:10:10;11.2;;;2.4;;
38220;SDS011;24023;51.280;7.148;2023-01-30T16:15:16;11.2;;;2.4;;
38220;SDS011;24023;51.280;7.148;2023-01-30T16:20:10;11.2;;;2.4;;
38220;SDS011;24023;51.280;7.148;2023-01-30T16:25:10;12.0;;;2.6;;
38220;SDS011;24023;51.280;7.148;2023-01-30T16:30:09;12.0;;;2.6;;
38220;SDS011;24023;51.280;7.148;2023-01-30T16:35:14;11.7;;;2.7;;
38220;SDS011;24023;51.280;7.148;2023-01-30T16:40:11;14.8;;;3.1;;
38220;SDS011;24023;51.280;7.148;2023-01-30T16:50:09;13.0;;;3.1;;
38220;SDS011;24023;51.280;7.148;2023-01-30T16:55:07;13.0;;;3.1;;
38220;SDS011;24023;51.280;7.148;2023-01-30T17:00:18;13.0;;;3.1;;
38220;SDS011;24023;51.280;7.148;2023-01-30T17:05:12;13.5;;;3.1;;
38220;SDS011;24023;51.280;7.148;2023-01-30T17:10:12;13.5;;;3.1;;
38220;SDS011;24023;51.280;7.148;2023-01-30T17:15:39;12.6;;;3.8;;
38220;SDS011;24023;51.280;7.148;2023-01-30T17:20:08;14.5;;;3.2;;
38220;SDS011;24023;51.280;7.148;2023-01-30T17:25:10;14.5;;;3.2;;
38220;SDS011;24023;51.280;7.148;2023-01-30T17:30:11;12.4;;;2.8;;
38220;SDS011;24023;51.280;7.148;2023-01-30T17:35:06;12.4;;;2.8;;
38220;SDS011;24023;51.280;7.148;2023-01-30T17:40:10;22.5;;;7.3;;
38220;SDS011;24023;51.280;7.148;2023-01-30T17:45:10;22.5;;;7.3;;
38220;SDS011;24023;51.280;7.148;2023-01-30T17:50:10;17.7;;;7.5;;
38220;SDS011;24023;51.280;7.148;2023-01-30T17:55:08;17.7;;;7.5;;
38220;SDS011;24023;51.280;7.148;2023-01-30T18:00:13;16.2;;;5.2;;
38220;SDS011;24023;51.280;7.148;2023-01-30T18:05:07;16.2;;;5.2;;
38220;SDS011;24023;51.280;7.148;2023-01-30T18:10:10;15.4;;;2.8;;
38220;SDS011;24023;51.280;7.148;2023-01-30T18:15:08;15.4;;;2.8;;
38220;SDS011;24023;51.280;7.148;2023-01-30T18:20:09;15.4;;;2.8;;
38220;SDS011;24023;51.280;7.148;2023-01-30T18:25:06;16.5;;;3.6;;
38220;SDS011;24023;51.280;7.148;2023-01-30T18:30:11;17.3;;;6.0;;
38220;SDS011;24023;51.280;7.148;2023-01-30T18:35:07;17.3;;;6.0;;
38220;SDS011;24023;51.280;7.148;2023-01-30T18:40:09;12.8;;;2.8;;
38220;SDS011;24023;51.280;7.148;2023-01-30T18:45:09;12.8;;;2.8;;
38220;SDS011;24023;51.280;7.148;2023-01-30T18:50:08;12.8;;;2.8;;
38220;SDS011;24023;51.280;7.148;2023-01-30T18:55:06;12.4;;;3.4;;
38220;SDS011;24023;51.280;7.148;2023-01-30T19:00:10;16.1;;;3.1;;
38220;SDS011;24023;51.280;7.148;2023-01-30T19:05:06;16.1;;;3.1;;
38220;SDS011;24023;51.280;7.148;2023-01-30T19:10:08;14.2;;;3.0;;
38220;SDS011;24023;51.280;7.148;2023-01-30T19:15:07;14.2;;;3.0;;
38220;SDS011;24023;51.280;7.148;2023-01-30T19:20:10;14.2;;;3.0;;
38220;SDS011;24023;51.280;7.148;2023-01-30T19:25:07;14.1;;;2.8;;
38220;SDS011;24023;51.280;7.148;2023-01-30T19:30:09;11.5;;;2.4;;
38220;SDS011;24023;51.280;7.148;2023-01-30T19:35:07;11.5;;;2.4;;
38220;SDS011;24023;51.280;7.148;2023-01-30T19:40:09;13.1;;;2.8;;
38220;SDS011;24023;51.280;7.148;2023-01-30T19:45:10;13.1;;;2.8;;
38220;SDS011;24023;51.280;7.148;2023-01-30T19:50:08;13.1;;;2.8;;
38220;SDS011;24023;51.280;7.148;2023-01-30T19:55:07;12.4;;;3.1;;
38220;SDS011;24023;51.280;7.148;2023-01-30T20:00:12;10.1;;;2.5;;
38220;SDS011;24023;51.280;7.148;2023-01-30T20:05:07;10.1;;;2.5;;
38220;SDS011;24023;51.280;7.148;2023-01-30T20:10:08;13.9;;;3.4;;
38220;SDS011;24023;51.280;7.148;2023-01-30T20:15:09;13.9;;;3.4;;
38220;SDS011;24023;51.280;7.148;2023-01-30T20:20:10;13.9;;;3.4;;
38220;SDS011;24023;51.280;7.148;2023-01-30T20:25:06;13.9;;;3.4;;
38220;SDS011;24023;51.280;7.148;2023-01-30T20:30:09;13.8;;;3.5;;
38220;SDS011;24023;51.280;7.148;2023-01-30T20:35:06;13.8;;;3.5;;
38220;SDS011;24023;51.280;7.148;2023-01-30T20:40:08;12.1;;;2.9;;
38220;SDS011;24023;51.280;7.148;2023-01-30T20:45:09;12.1;;;2.9;;
38220;SDS011;24023;51.280;7.148;2023-01-30T20:50:08;12.1;;;2.9;;
38220;SDS011;24023;51.280;7.148;2023-01-30T20:55:07;12.6;;;3.3;;
38220;SDS011;24023;51.280;7.148;2023-01-30T21:00:11;12.6;;;3.3;;
38220;SDS011;24023;51.280;7.148;2023-01-30T21:05:07;12.9;;;3.6;;
38220;SDS011;24023;51.280;7.148;2023-01-30T21:10:09;15.6;;;3.0;;
38220;SDS011;24023;51.280;7.148;2023-01-30T21:15:07;15.6;;;3.0;;
38220;SDS011;24023;51.280;7.148;2023-01-30T21:20:07;11.7;;;2.8;;
38220;SDS011;24023;51.280;7.148;2023-01-30T21:25:06;11.7;;;2.8;;
38220;SDS011;24023;51.280;7.148;2023-01-30T21:30:10;11.7;;;2.8;;
38220;SDS011;24023;51.280;7.148;2023-01-30T21:35:06;11.0;;;3.0;;
38220;SDS011;24023;51.280;7.148;2023-01-30T21:45:10;11.2;;;2.5;;
38220;SDS011;24023;51.280;7.148;2023-01-30T21:50:08;10.4;;;2.9;;
38220;SDS011;24023;51.280;7.148;2023-01-30T21:55:06;10.4;;;2.9;;
38220;SDS011;24023;51.280;7.148;2023-01-30T22:00:11;12.0;;;3.2;;
38220;SDS011;24023;51.280;7.148;2023-01-30T22:05:07;12.0;;;3.2;;
38220;SDS011;24023;51.280;7.148;2023-01-30T22:10:08;12.0;;;3.2;;
38220;SDS011;24023;51.280;7.148;2023-01-30T22:15:08;13.2;;;3.4;;
38220;SDS011;24023;51.280;7.148;2023-01-30T22:20:09;13.2;;;3.4;;
38220;SDS011;24023;51.280;7.148;2023-01-30T22:25:06;14.0;;;3.2;;
38220;SDS011;24023;51.280;7.148;2023-01-30T22:30:09;12.3;;;3.1;;
38220;SDS011;24023;51.280;7.148;2023-01-30T22:35:07;12.3;;;3.1;;
38220;SDS011;24023;51.280;7.148;2023-01-30T22:40:08;12.3;;;3.1;;
38220;SDS011;24023;51.280;7.148;2023-01-30T22:45:09;11.1;;;2.9;;
38220;SDS011;24023;51.280;7.148;2023-01-30T22:50:08;11.1;;;2.9;;
38220;SDS011;24023;51.280;7.148;2023-01-30T22:55:06;10.6;;;2.6;;
38220;SDS011;24023;51.280;7.148;2023-01-30T23:00:21;12.3;;;2.7;;
38220;SDS011;24023;51.280;7.148;2023-01-30T23:05:07;12.3;;;2.7;;
38220;SDS011;24023;51.280;7.148;2023-01-30T23:10:08;12.3;;;2.7;;
38220;SDS011;24023;51.280;7.148;2023-01-30T23:15:07;13.5;;;3.0;;
38220;SDS011;24023;51.280;7.148;2023-01-30T23:20:08;13.5;;;3.0;;
38220;SDS011;24023;51.280;7.148;2023-01-30T23:25:07;12.1;;;3.2;;
38220;SDS011;24023;51.280;7.148;2023-01-30T23:30:09;12.1;;;3.2;;
38220;SDS011;24023;51.280;7.148;2023-01-30T23:35:06;13.4;;;3.1;;
38220;SDS011;24023;51.280;7.148;2023-01-30T23:40:08;13.4;;;3.1;;
38220;SDS011;24023;51.280;7.148;2023-01-30T23:45:12;13.4;;;3.1;;
38220;SDS011;24023;51.280;7.148;2023-01-30T23:50:08;13.3;;;3.4;;
38220;SDS011;24023;51.280;7.148;2023-01-30T23:55:06;13.3;;;3.4;;
